Time;durP1;ratioP1;P1;durP2;ratioP2;P2;SDS_P1;SDS_P2;PMS_P1;PMS_P2;Temp;Humidity;BMP_temperature;BMP_pressure;BME280_temperature;BME280_humidity;BME280_pressure;Samples;Min_cycle;Max_cycle;Signal;HPM_P1;HPM_P2
2022/10/03 00:01:56;;;;;;;25.27;14.87;;;7.60;99.90;;;;;;5094644;28;20460;-69
2022/10/03 00:04:45;;;;;;;15.90;14.30;;;7.60;99.90;;;;;;5072566;28;20820;-69
2022/10/03 00:07:22;;;;;;;20.47;14.50;;;7.70;99.90;;;;;;5096662;28;20468;-68
2022/10/03 00:10:04;;;;;;;16.10;14.30;;;7.70;99.90;;;;;;5094676;28;20446;-69
2022/10/03 00:13:00;;;;;;;18.53;13.00;;;7.70;99.90;;;;;;5092156;28;20461;-68
2022/10/03 00:15:30;;;;;;;19.77;14.43;;;7.70;99.90;;;;;;5089104;28;20509;-68
2022/10/03 00:18:09;;;;;;;14.27;12.63;;;7.70;99.90;;;;;;5096327;28;20854;-69
2022/10/03 00:20:51;;;;;;;15.53;14.07;;;7.70;99.90;;;;;;5092167;28;20828;-68
2022/10/03 00:23:25;;;;;;;16.90;15.10;;;7.70;99.90;;;;;;5099022;28;20464;-68
2022/10/03 00:26:25;;;;;;;15.27;14.07;;;7.80;99.90;;;;;;5096169;28;20460;-69
2022/10/03 00:29:00;;;;;;;17.97;14.77;;;7.80;99.90;;;;;;5092996;28;20893;-68
2022/10/03 00:31:41;;;;;;;34.33;15.17;;;7.70;99.90;;;;;;5091733;28;20473;-68
2022/10/03 00:34:20;;;;;;;21.17;14.63;;;7.80;99.90;;;;;;5097629;28;20470;-68
2022/10/03 00:36:57;;;;;;;15.70;14.30;;;8.10;99.90;;;;;;5101251;28;20468;-70
2022/10/03 00:39:46;;;;;;;18.63;14.10;;;8.20;99.90;;;;;;5095129;28;20479;-68
2022/10/03 00:42:46;;;;;;;19.67;14.50;;;8.30;99.90;;;;;;5093747;28;21279;-68
2022/10/03 00:45:42;;;;;;;21.80;14.30;;;8.40;99.90;;;;;;5028915;28;20553;-70
2022/10/03 00:48:26;;;;;;;27.07;15.00;;;8.40;99.90;;;;;;5091594;28;20537;-70
2022/10/03 00:51:07;;;;;;;23.20;15.30;;;8.50;99.90;;;;;;5093553;28;20955;-69
2022/10/03 00:53:45;;;;;;;22.80;15.67;;;8.60;99.90;;;;;;5096591;28;20461;-68
2022/10/03 00:56:33;;;;;;;27.87;16.80;;;8.60;99.90;;;;;;5091061;28;20825;-68
2022/10/03 00:59:19;;;;;;;23.40;15.47;;;8.50;99.90;;;;;;5089005;28;20494;-69
2022/10/03 01:01:49;;;;;;;30.93;17.13;;;8.50;99.90;;;;;;5090408;28;20460;-68
2022/10/03 01:04:44;;;;;;;22.03;16.20;;;8.60;99.90;;;;;;5093610;28;20468;-69
2022/10/03 01:07:32;;;;;;;25.37;15.97;;;8.70;99.90;;;;;;5100184;28;20463;-70
2022/10/03 01:10:08;;;;;;;29.77;16.97;;;8.60;99.90;;;;;;5091982;28;20487;-68
2022/10/03 01:13:10;;;;;;;22.20;15.83;;;8.60;99.90;;;;;;5095380;28;20528;-69
2022/10/03 01:15:46;;;;;;;25.27;17.20;;;8.60;99.90;;;;;;5093496;28;20480;-68
2022/10/03 01:18:29;;;;;;;23.10;17.17;;;8.60;99.90;;;;;;5094760;28;20847;-68
2022/10/03 01:21:06;;;;;;;31.13;17.47;;;8.60;99.90;;;;;;5094488;28;20466;-68
2022/10/03 01:24:01;;;;;;;18.30;16.43;;;8.50;99.90;;;;;;5089417;28;20543;-70
2022/10/03 01:26:53;;;;;;;29.23;17.73;;;8.50;99.90;;;;;;5099676;28;20462;-68
2022/10/03 01:32:17;;;;;;;20.67;17.40;;;8.40;99.90;;;;;;5092709;28;20474;-70
2022/10/03 01:34:54;;;;;;;19.50;17.33;;;8.40;99.90;;;;;;5091198;28;20810;-68
2022/10/03 01:37:28;;;;;;;19.37;17.43;;;8.40;99.90;;;;;;5094715;28;20461;-67
2022/10/03 01:40:05;;;;;;;20.83;18.63;;;8.40;99.90;;;;;;5093536;28;20483;-69
2022/10/03 01:42:41;;;;;;;21.10;18.23;;;8.30;99.90;;;;;;5093166;28;20472;-68
2022/10/03 01:45:22;;;;;;;20.80;17.30;;;8.30;99.90;;;;;;5096234;28;20464;-68
2022/10/03 01:47:53;;;;;;;28.33;17.00;;;8.30;99.90;;;;;;5090129;28;20562;-69
2022/10/03 01:50:28;;;;;;;23.70;17.90;;;8.20;99.90;;;;;;5090834;28;20475;-68
2022/10/03 01:52:58;;;;;;;22.83;17.40;;;8.10;99.90;;;;;;5094692;28;20463;-68
2022/10/03 01:55:35;;;;;;;26.43;17.57;;;8.10;99.90;;;;;;5093375;28;20465;-68
2022/10/03 01:58:08;;;;;;;24.63;17.60;;;8.10;99.90;;;;;;5091814;28;20471;-69
2022/10/03 02:00:47;;;;;;;22.63;17.47;;;8.10;99.90;;;;;;5094514;28;20519;-68
2022/10/03 02:03:21;;;;;;;29.90;17.40;;;8.10;99.90;;;;;;5103088;28;20467;-68
2022/10/03 02:05:56;;;;;;;22.03;17.70;;;8.00;99.90;;;;;;5097447;28;20555;-70
2022/10/03 02:08:32;;;;;;;26.87;18.30;;;8.00;99.90;;;;;;5098483;28;20459;-69
2022/10/03 02:11:02;;;;;;;22.40;18.53;;;8.00;99.90;;;;;;5098986;28;20465;-68
2022/10/03 02:13:41;;;;;;;22.50;18.23;;;8.00;99.90;;;;;;5096902;28;20459;-70
2022/10/03 02:16:14;;;;;;;19.73;17.80;;;8.10;99.90;;;;;;5094900;28;20476;-68
2022/10/03 02:18:47;;;;;;;20.00;17.90;;;8.00;99.90;;;;;;5098665;28;20798;-68
2022/10/03 02:21:19;;;;;;;27.27;17.67;;;8.10;99.90;;;;;;5097351;28;20475;-68
2022/10/03 02:23:48;;;;;;;30.50;19.17;;;8.10;99.90;;;;;;5095646;28;20469;-67
2022/10/03 02:26:38;;;;;;;30.27;20.20;;;8.10;99.90;;;;;;5098251;28;20461;-67
2022/10/03 02:29:27;;;;;;;30.27;19.77;;;8.10;99.90;;;;;;5096860;28;20491;-68
2022/10/03 02:32:18;;;;;;;22.23;19.33;;;8.10;99.90;;;;;;5096216;28;20464;-67
2022/10/03 02:35:09;;;;;;;24.80;18.30;;;8.10;99.90;;;;;;5099336;28;20464;-69
2022/10/03 02:38:08;;;;;;;26.63;19.67;;;8.00;99.90;;;;;;5093647;28;20603;-67
2022/10/03 02:41:17;;;;;;;22.67;17.67;;;8.10;99.90;;;;;;5089163;28;21053;-68
2022/10/03 02:44:14;;;;;;;29.90;17.80;;;8.00;99.90;;;;;;5092286;28;20497;-67
2022/10/03 02:47:17;;;;;;;25.07;20.10;;;8.10;99.90;;;;;;5092258;28;20487;-68
2022/10/03 02:50:17;;;;;;;23.53;18.60;;;8.10;99.90;;;;;;5092772;28;20491;-69
2022/10/03 02:53:25;;;;;;;22.43;18.60;;;8.00;99.90;;;;;;5096274;28;20510;-68
2022/10/03 02:56:29;;;;;;;25.73;20.30;;;7.90;99.90;;;;;;5098291;28;20855;-70
2022/10/03 02:59:26;;;;;;;29.70;21.47;;;7.70;99.90;;;;;;5093299;28;20466;-69
2022/10/03 03:02:10;;;;;;;26.47;20.60;;;7.70;99.90;;;;;;5093824;28;20487;-68
2022/10/03 03:05:15;;;;;;;23.07;20.57;;;7.70;99.90;;;;;;5096102;28;20499;-68
2022/10/03 03:08:08;;;;;;;23.80;21.37;;;7.90;99.90;;;;;;5096574;28;20446;-70
2022/10/03 03:11:12;;;;;;;24.57;20.57;;;7.90;99.90;;;;;;5093966;28;20470;-68
2022/10/03 03:14:21;;;;;;;24.40;20.50;;;7.90;99.90;;;;;;5094898;28;20479;-68
2022/10/03 03:17:00;;;;;;;30.03;18.60;;;8.00;99.90;;;;;;5097007;28;20961;-67
2022/10/03 03:19:46;;;;;;;26.50;19.07;;;8.00;99.90;;;;;;5093380;28;20888;-67
2022/10/03 03:22:31;;;;;;;31.87;19.40;;;7.90;99.90;;;;;;5101195;28;20475;-68
2022/10/03 03:25:15;;;;;;;25.70;21.03;;;7.80;99.90;;;;;;5099884;28;20456;-70
2022/10/03 03:27:52;;;;;;;23.03;19.90;;;7.70;99.90;;;;;;5094809;28;20469;-67
2022/10/03 03:30:22;;;;;;;27.17;19.73;;;7.70;99.90;;;;;;5095341;28;21055;-68
2022/10/03 03:33:00;;;;;;;33.13;19.07;;;7.60;99.90;;;;;;5098501;28;20975;-67
2022/10/03 03:35:37;;;;;;;22.20;20.10;;;7.50;99.90;;;;;;5093000;28;20461;-68
2022/10/03 03:38:17;;;;;;;19.90;18.10;;;7.50;99.90;;;;;;5099908;28;20799;-68
2022/10/03 03:41:01;;;;;;;25.03;20.53;;;7.60;99.90;;;;;;5092752;28;20495;-68
2022/10/03 03:43:46;;;;;;;25.23;18.63;;;7.60;99.90;;;;;;5096627;28;20511;-68
2022/10/03 03:46:25;;;;;;;29.33;20.57;;;7.70;99.90;;;;;;5091904;28;20457;-69
2022/10/03 03:49:07;;;;;;;24.27;19.40;;;7.80;99.90;;;;;;5095459;28;20862;-68
2022/10/03 03:51:42;;;;;;;32.97;20.07;;;7.80;99.90;;;;;;5094174;28;20846;-68
2022/10/03 03:54:40;;;;;;;25.40;21.30;;;7.70;99.90;;;;;;5101257;28;20465;-69
2022/10/03 03:57:35;;;;;;;31.93;21.97;;;7.60;99.90;;;;;;5101701;28;20502;-68
2022/10/03 04:00:07;;;;;;;27.13;22.40;;;7.70;99.90;;;;;;5096181;28;20483;-68
2022/10/03 04:02:47;;;;;;;30.10;21.30;;;7.70;99.90;;;;;;5098947;28;20551;-68
2022/10/03 04:05:27;;;;;;;26.23;20.97;;;7.70;99.90;;;;;;5097177;28;20859;-70
2022/10/03 04:08:10;;;;;;;34.43;23.27;;;7.60;99.90;;;;;;5088449;28;20537;-69
2022/10/03 04:10:47;;;;;;;27.73;22.50;;;7.50;99.90;;;;;;5093978;28;20462;-68
2022/10/03 04:13:30;;;;;;;22.80;20.60;;;7.60;99.90;;;;;;5090202;28;20476;-69
2022/10/03 04:19:25;;;;;;;23.50;20.93;;;7.50;99.90;;;;;;5087181;28;20537;-70
2022/10/03 04:22:13;;;;;;;20.47;18.77;;;7.30;99.90;;;;;;5094918;28;20797;-67
2022/10/03 04:24:56;;;;;;;23.17;20.97;;;7.20;99.90;;;;;;5093757;28;20785;-68
2022/10/03 04:27:45;;;;;;;23.07;20.97;;;7.20;99.90;;;;;;5091927;28;20457;-70
2022/10/03 04:30:18;;;;;;;24.50;22.10;;;7.20;99.90;;;;;;5069944;28;20466;-67
2022/10/03 04:33:01;;;;;;;23.90;21.80;;;7.10;99.90;;;;;;5067362;28;20592;-69
2022/10/03 04:36:08;;;;;;;33.63;23.87;;;7.10;99.90;;;;;;5068498;28;20461;-68
2022/10/03 04:38:43;;;;;;;27.17;21.43;;;7.10;99.90;;;;;;5069123;28;20470;-68
2022/10/03 04:41:22;;;;;;;22.43;20.77;;;7.00;99.90;;;;;;5061010;28;20594;-68
2022/10/03 04:43:56;;;;;;;24.20;21.83;;;6.90;99.90;;;;;;5072231;28;20472;-69
2022/10/03 04:46:30;;;;;;;24.20;22.00;;;6.90;99.90;;;;;;5058034;28;20747;-68
2022/10/03 04:49:05;;;;;;;27.50;24.33;;;6.90;99.90;;;;;;5069156;28;20957;-68
2022/10/03 04:51:44;;;;;;;26.43;24.27;;;7.00;99.90;;;;;;5070700;28;20459;-68
2022/10/03 04:54:22;;;;;;;28.60;25.67;;;7.10;99.90;;;;;;5076283;28;20823;-68
2022/10/03 04:56:55;;;;;;;28.30;25.50;;;7.00;99.90;;;;;;5069588;28;20464;-68
2022/10/03 04:59:45;;;;;;;27.80;25.20;;;7.10;99.90;;;;;;5063579;28;20456;-67
2022/10/03 05:02:32;;;;;;;26.90;24.23;;;7.10;99.90;;;;;;5061869;28;20540;-67
2022/10/03 05:05:18;;;;;;;27.43;25.13;;;7.00;99.90;;;;;;5066818;28;20486;-68
2022/10/03 05:07:50;;;;;;;27.90;24.90;;;7.10;99.90;;;;;;5070221;28;20449;-67
2022/10/03 05:10:28;;;;;;;25.80;23.60;;;7.10;99.90;;;;;;5072931;28;20534;-67
2022/10/03 05:13:02;;;;;;;26.20;24.00;;;7.00;99.90;;;;;;5067935;28;20910;-67
2022/10/03 05:15:35;;;;;;;26.80;24.00;;;6.80;99.90;;;;;;5069843;28;20495;-67
2022/10/03 05:18:14;;;;;;;37.23;26.13;;;6.70;99.90;;;;;;5063761;28;20469;-68
2022/10/03 05:20:52;;;;;;;32.83;27.20;;;6.60;99.90;;;;;;5059766;28;20490;-68
2022/10/03 05:23:28;;;;;;;28.30;25.70;;;6.60;99.90;;;;;;5061268;28;20942;-67
2022/10/03 05:26:04;;;;;;;36.60;25.93;;;6.70;99.90;;;;;;5066174;28;20904;-69
2022/10/03 05:28:40;;;;;;;32.73;25.30;;;6.80;99.90;;;;;;5061984;28;21006;-68
2022/10/03 05:31:22;;;;;;;28.47;23.93;;;6.80;99.90;;;;;;5067520;28;20545;-68
2022/10/03 05:34:00;;;;;;;28.67;25.70;;;6.80;99.90;;;;;;5071274;28;20478;-71
2022/10/03 05:36:33;;;;;;;26.77;24.67;;;6.90;99.90;;;;;;5081213;28;21031;-69
2022/10/03 05:39:33;;;;;;;28.37;25.47;;;7.00;99.90;;;;;;5075156;28;20502;-67
2022/10/03 05:42:18;;;;;;;42.47;24.40;;;7.10;99.90;;;;;;5071011;28;20484;-67
2022/10/03 05:44:54;;;;;;;31.37;26.60;;;7.10;99.90;;;;;;5072584;28;20467;-70
2022/10/03 05:47:47;;;;;;;27.40;24.57;;;7.30;99.90;;;;;;5069921;28;20477;-68
2022/10/03 05:50:35;;;;;;;28.37;23.50;;;7.40;99.90;;;;;;5073112;28;20685;-68
2022/10/03 05:53:12;;;;;;;26.80;23.97;;;7.60;99.90;;;;;;5071579;28;20514;-68
2022/10/03 05:56:01;;;;;;;28.03;25.13;;;7.70;99.90;;;;;;5074445;28;20465;-68
2022/10/03 05:58:47;;;;;;;27.77;25.03;;;7.80;99.90;;;;;;5070555;28;20490;-68
2022/10/03 06:01:50;;;;;;;34.03;27.23;;;8.00;99.90;;;;;;5068793;28;20496;-68
2022/10/03 06:05:04;;;;;;;28.70;25.47;;;8.10;99.90;;;;;;5071606;28;20482;-68
2022/10/03 06:07:48;;;;;;;25.40;23.00;;;8.30;99.90;;;;;;5069074;28;20464;-68
2022/10/03 06:10:41;;;;;;;24.83;22.50;;;8.30;99.90;;;;;;5071033;28;20463;-68
2022/10/03 06:13:19;;;;;;;37.17;26.80;;;8.40;99.90;;;;;;5070987;28;20466;-68
2022/10/03 06:15:56;;;;;;;29.67;26.83;;;8.50;99.90;;;;;;5075228;28;20478;-68
2022/10/03 06:19:02;;;;;;;27.70;25.30;;;8.70;99.90;;;;;;5077274;28;20462;-69
2022/10/03 06:22:07;;;;;;;33.33;27.40;;;8.90;99.90;;;;;;5074815;28;20490;-69
2022/10/03 06:25:16;;;;;;;34.10;28.97;;;9.00;99.90;;;;;;5074693;28;20472;-67
2022/10/03 06:28:17;;;;;;;40.77;27.10;;;9.20;99.90;;;;;;5074052;28;20815;-68
2022/10/03 06:30:59;;;;;;;31.30;27.23;;;9.40;99.90;;;;;;5072914;28;20469;-68
2022/10/03 06:33:49;;;;;;;36.73;25.80;;;9.50;99.90;;;;;;5074911;28;20471;-67
2022/10/03 06:36:37;;;;;;;35.30;24.73;;;9.60;99.90;;;;;;5068777;28;20485;-70
2022/10/03 06:39:34;;;;;;;26.27;23.77;;;9.50;99.90;;;;;;5074380;28;20468;-70
2022/10/03 06:42:33;;;;;;;30.20;25.30;;;9.60;99.90;;;;;;5071714;28;20478;-67
2022/10/03 06:45:39;;;;;;;25.60;22.87;;;9.80;99.90;;;;;;5074370;28;20826;-69
2022/10/03 06:48:27;;;;;;;31.63;24.67;;;10.00;99.90;;;;;;5074099;28;20482;-69
2022/10/03 06:51:10;;;;;;;33.33;25.60;;;10.10;99.90;;;;;;5075889;28;20485;-69
2022/10/03 06:53:56;;;;;;;27.80;24.40;;;10.30;99.90;;;;;;5075873;28;20478;-69
2022/10/03 06:56:57;;;;;;;26.03;23.30;;;10.40;99.90;;;;;;5073430;28;20501;-67
2022/10/03 06:59:49;;;;;;;34.60;25.30;;;10.30;99.90;;;;;;5072900;28;20453;-68
2022/10/03 07:02:56;;;;;;;30.73;27.40;;;10.40;99.90;;;;;;5069896;28;20498;-69
2022/10/03 07:06:06;;;;;;;27.70;24.77;;;10.50;99.90;;;;;;5068511;28;20516;-68
2022/10/03 07:09:03;;;;;;;36.60;26.30;;;10.40;99.90;;;;;;5072874;28;20459;-70
2022/10/03 07:11:43;;;;;;;34.33;25.07;;;10.40;99.90;;;;;;5074970;28;20909;-70
2022/10/03 07:14:44;;;;;;;33.33;24.47;;;10.20;99.90;;;;;;5070209;28;20486;-68
2022/10/03 07:17:33;;;;;;;40.43;28.03;;;10.20;99.90;;;;;;5076738;28;20469;-67
2022/10/03 07:20:20;;;;;;;32.73;26.60;;;10.10;99.90;;;;;;5072976;28;20457;-70
2022/10/03 07:23:13;;;;;;;28.23;22.97;;;10.10;99.90;;;;;;5079354;28;20462;-68
2022/10/03 07:26:18;;;;;;;45.53;25.07;;;10.30;99.90;;;;;;5077023;28;20478;-68
2022/10/03 07:29:08;;;;;;;30.43;24.60;;;10.40;99.90;;;;;;5082180;28;20482;-68
2022/10/03 07:31:50;;;;;;;29.53;23.10;;;10.60;99.90;;;;;;5073645;28;20559;-68
2022/10/03 07:34:56;;;;;;;33.70;24.20;;;10.50;99.90;;;;;;5075816;28;20463;-68
2022/10/03 07:41:06;;;;;;;33.17;20.70;;;11.00;99.90;;;;;;5075105;28;20489;-68
2022/10/03 07:44:08;;;;;;;40.07;22.80;;;11.20;99.90;;;;;;5058448;28;20454;-70
2022/10/03 07:46:53;;;;;;;39.37;20.73;;;11.50;99.90;;;;;;5052734;28;20763;-68
2022/10/03 07:49:45;;;;;;;36.97;21.93;;;11.50;99.90;;;;;;5074390;28;21143;-68
2022/10/03 07:52:53;;;;;;;34.30;21.07;;;11.60;99.90;;;;;;5071907;28;20468;-70
2022/10/03 07:55:40;;;;;;;35.20;21.43;;;11.80;99.90;;;;;;5072826;28;20871;-69
2022/10/03 07:58:41;;;;;;;28.73;21.47;;;11.90;99.90;;;;;;5082209;28;20469;-68
2022/10/03 08:01:46;;;;;;;30.40;18.93;;;12.00;99.90;;;;;;5076463;28;21010;-68
2022/10/03 08:05:07;;;;;;;32.23;16.30;;;12.20;99.90;;;;;;5024078;28;20456;-70
2022/10/03 08:08:02;;;;;;;31.67;16.40;;;12.50;99.90;;;;;;5067659;28;21029;-69
2022/10/03 08:11:07;;;;;;;28.67;17.23;;;12.50;99.90;;;;;;5093811;28;21026;-69
2022/10/03 08:13:48;;;;;;;28.97;16.20;;;12.40;99.90;;;;;;5088927;28;20458;-68
2022/10/03 08:16:32;;;;;;;34.50;16.10;;;12.40;99.90;;;;;;5089705;28;21148;-68
2022/10/03 08:19:18;;;;;;;25.13;16.67;;;12.40;99.90;;;;;;5097188;28;20476;-71
2022/10/03 08:21:59;;;;;;;34.13;19.00;;;12.30;99.90;;;;;;5094856;28;20493;-69
2022/10/03 08:24:54;;;;;;;35.00;20.23;;;12.20;99.90;;;;;;5093524;28;20473;-69
2022/10/03 08:27:42;;;;;;;35.67;17.50;;;12.30;99.90;;;;;;5096632;28;20458;-69
2022/10/03 08:30:24;;;;;;;39.80;18.90;;;12.30;99.90;;;;;;5093084;28;20553;-69
2022/10/03 08:32:58;;;;;;;32.73;17.17;;;12.30;99.90;;;;;;5094543;28;20496;-68
2022/10/03 08:35:36;;;;;;;23.80;16.33;;;12.30;99.90;;;;;;5097319;28;20493;-68
2022/10/03 08:38:45;;;;;;;29.80;17.50;;;12.40;99.90;;;;;;5096393;28;20462;-69
2022/10/03 08:42:01;;;;;;;25.43;17.57;;;12.50;99.90;;;;;;5092983;28;20481;-69
2022/10/03 08:44:53;;;;;;;30.80;16.70;;;12.60;99.90;;;;;;5099215;28;20727;-69
2022/10/03 08:48:08;;;;;;;31.63;14.17;;;12.70;99.90;;;;;;5090831;28;20711;-67
2022/10/03 08:51:04;;;;;;;26.30;14.63;;;12.80;99.90;;;;;;5095043;28;20446;-68
2022/10/03 08:54:03;;;;;;;24.70;16.17;;;12.90;99.90;;;;;;5094963;28;20466;-68
2022/10/03 08:56:51;;;;;;;26.50;16.57;;;13.00;99.90;;;;;;5088291;28;20539;-68
2022/10/03 08:59:56;;;;;;;25.40;14.00;;;13.20;99.90;;;;;;5095678;28;20453;-68
2022/10/03 09:02:59;;;;;;;41.70;15.10;;;13.30;99.90;;;;;;5066692;28;20489;-68
2022/10/03 09:05:53;;;;;;;22.20;13.60;;;13.30;99.90;;;;;;5096460;28;20914;-68
2022/10/03 09:08:58;;;;;;;24.37;13.60;;;13.50;99.90;;;;;;5096712;28;20453;-68
2022/10/03 09:12:03;;;;;;;16.10;11.60;;;13.50;99.90;;;;;;5094418;28;20473;-68
2022/10/03 09:15:04;;;;;;;22.47;13.07;;;13.70;99.90;;;;;;5063559;28;20493;-68
2022/10/03 09:18:09;;;;;;;33.93;14.33;;;13.70;99.90;;;;;;5050831;28;20945;-68
2022/10/03 09:21:09;;;;;;;24.07;13.17;;;13.90;99.90;;;;;;5094075;28;20469;-68
2022/10/03 09:24:08;;;;;;;19.47;12.73;;;14.00;99.90;;;;;;5096256;28;20460;-69
2022/10/03 09:27:14;;;;;;;25.20;12.73;;;14.10;99.90;;;;;;5090770;28;20465;-69
2022/10/03 09:30:15;;;;;;;24.27;14.20;;;14.10;99.90;;;;;;5093409;28;20497;-68
2022/10/03 09:33:30;;;;;;;24.40;12.40;;;14.30;99.90;;;;;;5097088;28;20487;-69
2022/10/03 09:37:00;;;;;;;10.30;9.20;;;14.40;99.90;;;;;;5092303;28;20995;-68
2022/10/03 09:39:52;;;;;;;15.00;9.67;;;14.40;99.90;;;;;;4927458;29;20469;-68
2022/10/03 09:42:45;;;;;;;13.43;9.87;;;14.50;99.90;;;;;;5016605;28;20497;-68
2022/10/03 09:45:31;;;;;;;17.97;10.70;;;15.10;99.90;;;;;;5075498;28;20978;-68
2022/10/03 09:48:21;;;;;;;13.97;11.40;;;15.70;99.90;;;;;;5094655;28;20454;-68
2022/10/03 09:51:25;;;;;;;11.57;10.57;;;16.40;99.90;;;;;;5092266;28;20467;-71
2022/10/03 09:54:27;;;;;;;11.57;10.53;;;17.20;99.90;;;;;;5093944;28;20466;-69
2022/10/03 09:57:12;;;;;;;16.97;11.27;;;17.90;99.90;;;;;;5093065;28;20480;-71
2022/10/03 10:00:00;;;;;;;13.67;12.30;;;18.60;99.90;;;;;;5093280;28;20990;-69
2022/10/03 10:02:58;;;;;;;14.97;13.13;;;18.70;99.90;;;;;;5091554;28;20796;-70
2022/10/03 10:05:54;;;;;;;15.00;13.50;;;19.00;99.90;;;;;;5092031;28;20466;-71
2022/10/03 10:08:44;;;;;;;14.30;12.90;;;19.10;99.90;;;;;;5093394;28;20470;-68
2022/10/03 10:11:24;;;;;;;17.03;12.47;;;19.00;99.90;;;;;;5089800;28;20462;-70
2022/10/03 10:14:28;;;;;;;12.83;11.80;;;18.80;99.90;;;;;;5093647;28;20459;-68
2022/10/03 10:17:33;;;;;;;16.40;12.87;;;18.20;99.90;;;;;;5090606;28;20484;-68
2022/10/03 10:20:20;;;;;;;14.80;13.50;;;18.50;99.90;;;;;;5091489;28;20552;-67
2022/10/03 10:23:11;;;;;;;13.50;12.40;;;18.10;99.90;;;;;;5094658;28;20504;-70
2022/10/03 10:26:04;;;;;;;14.17;12.77;;;17.90;99.90;;;;;;5093268;28;20474;-69
2022/10/03 10:29:22;;;;;;;13.00;12.03;;;18.50;99.90;;;;;;5049621;28;20509;-68
2022/10/03 10:32:20;;;;;;;14.40;12.97;;;19.70;99.90;;;;;;5092121;28;20560;-68
2022/10/03 10:35:16;;;;;;;15.63;13.87;;;20.60;99.90;;;;;;5097627;28;20469;-70
2022/10/03 10:38:22;;;;;;;13.23;12.27;;;21.00;99.90;;;;;;5093493;28;20877;-68
2022/10/03 10:41:45;;;;;;;14.13;13.13;;;21.40;99.90;;;;;;5094479;28;20984;-68
2022/10/03 10:44:44;;;;;;;14.23;13.27;;;21.00;99.90;;;;;;5097184;28;20458;-68
2022/10/03 10:47:38;;;;;;;15.10;13.60;;;21.60;99.90;;;;;;5096776;28;20445;-71
2022/10/03 10:50:25;;;;;;;14.53;13.33;;;22.30;99.90;;;;;;5097776;28;20479;-68
2022/10/03 10:53:27;;;;;;;14.57;13.37;;;22.00;99.90;;;;;;5099253;28;20894;-69
2022/10/03 10:56:32;;;;;;;14.73;13.73;;;21.60;99.90;;;;;;5092359;28;20492;-69
2022/10/03 10:59:47;;;;;;;14.07;13.10;;;21.80;99.90;;;;;;5095847;28;20458;-68
2022/10/03 11:03:00;;;;;;;14.40;13.13;;;21.40;99.90;;;;;;5094254;28;20572;-69
2022/10/03 11:06:13;;;;;;;14.70;13.50;;;21.60;99.90;;;;;;5097130;28;20467;-69
2022/10/03 11:09:27;;;;;;;14.07;13.03;;;22.00;99.90;;;;;;5096575;28;20515;-69
2022/10/03 11:12:27;;;;;;;13.80;13.00;;;21.90;99.90;;;;;;5101498;28;20464;-69
2022/10/03 11:15:42;;;;;;;15.60;14.00;;;22.70;99.90;;;;;;5100122;28;20453;-69
2022/10/03 11:18:52;;;;;;;14.97;13.93;;;23.40;99.90;;;;;;5091941;28;22987;-71
2022/10/03 11:22:03;;;;;;;15.77;14.30;;;22.50;99.90;;;;;;5091386;28;20454;-70
2022/10/03 11:25:19;;;;;;;14.60;13.60;;;22.10;99.90;;;;;;5095238;28;20539;-68
2022/10/03 11:28:27;;;;;;;15.17;14.03;;;22.70;99.90;;;;;;5099890;28;20472;-71
2022/10/03 11:31:20;;;;;;;16.33;14.63;;;23.00;99.90;;;;;;5091144;28;20460;-69
2022/10/03 11:34:35;;;;;;;15.43;14.03;;;23.20;99.90;;;;;;5091919;28;20842;-69
2022/10/03 11:37:22;;;;;;;15.13;14.23;;;22.90;99.90;;;;;;5093258;28;20956;-68
2022/10/03 11:39:55;;;;;;;16.10;14.63;;;22.00;99.90;;;;;;5095559;28;20824;-68
2022/10/03 11:42:32;;;;;;;16.17;14.83;;;21.20;99.90;;;;;;5101756;28;20489;-68
2022/10/03 11:45:03;;;;;;;15.67;14.27;;;20.50;99.90;;;;;;5093257;28;20940;-68
2022/10/03 11:47:55;;;;;;;15.20;14.10;;;20.30;99.90;;;;;;5097025;28;20454;-69
2022/10/03 11:50:43;;;;;;;15.63;14.27;;;20.10;99.90;;;;;;5092200;28;20988;-69
2022/10/03 11:53:33;;;;;;;14.30;13.33;;;19.90;99.90;;;;;;5095611;28;20978;-68
2022/10/03 11:56:20;;;;;;;14.43;13.40;;;20.20;99.90;;;;;;5094924;28;20957;-68
2022/10/03 11:59:07;;;;;;;15.53;14.10;;;20.70;99.90;;;;;;5096802;28;20480;-70
2022/10/03 12:01:45;;;;;;;15.37;14.27;;;21.90;99.90;;;;;;5094726;28;20465;-69
2022/10/03 12:04:23;;;;;;;16.20;14.70;;;23.30;99.90;;;;;;5094281;28;20454;-69
2022/10/03 12:10:01;;;;;;;16.03;14.83;;;23.70;99.90;;;;;;5098128;28;20456;-69
2022/10/03 12:12:37;;;;;;;15.83;14.63;;;23.40;98.10;;;;;;5091263;28;20462;-72
2022/10/03 12:15:23;;;;;;;15.57;14.57;;;23.10;99.20;;;;;;5095295;28;20871;-70
2022/10/03 12:18:01;;;;;;;16.23;14.70;;;23.10;99.30;;;;;;5092207;28;20458;-70
2022/10/03 12:20:39;;;;;;;17.60;15.90;;;22.60;99.60;;;;;;5096710;28;20454;-70
2022/10/03 12:23:20;;;;;;;16.23;14.93;;;22.30;99.90;;;;;;5100812;28;20494;-69
2022/10/03 12:25:50;;;;;;;16.90;15.50;;;22.40;99.90;;;;;;5096795;28;20471;-70
2022/10/03 12:28:24;;;;;;;14.50;13.70;;;22.20;99.90;;;;;;5094504;28;20514;-70
2022/10/03 12:30:55;;;;;;;15.07;13.90;;;21.80;99.90;;;;;;5094423;28;20493;-70
2022/10/03 12:33:43;;;;;;;15.10;14.00;;;21.30;99.90;;;;;;5091343;28;20583;-70
2022/10/03 12:36:14;;;;;;;16.20;14.70;;;21.20;99.90;;;;;;5092704;28;20828;-71
2022/10/03 12:38:58;;;;;;;15.03;14.07;;;21.40;99.90;;;;;;5092861;28;20561;-69
2022/10/03 12:41:49;;;;;;;15.13;14.03;;;22.00;99.90;;;;;;5093052;28;20465;-68
2022/10/03 12:44:34;;;;;;;15.77;14.43;;;22.20;99.90;;;;;;5090563;28;20476;-69
2022/10/03 12:47:14;;;;;;;14.43;13.60;;;22.10;99.70;;;;;;5092012;28;20461;-72
2022/10/03 12:49:53;;;;;;;15.40;14.30;;;21.80;99.90;;;;;;5092579;28;20634;-71
2022/10/03 12:52:27;;;;;;;15.30;14.00;;;21.30;99.90;;;;;;5092242;28;20462;-71
2022/10/03 12:55:04;;;;;;;15.60;14.20;;;21.00;99.90;;;;;;5093460;28;20461;-71
2022/10/03 12:57:52;;;;;;;14.57;13.80;;;20.80;99.90;;;;;;5092517;28;20707;-71
2022/10/03 13:00:25;;;;;;;14.43;13.60;;;20.70;99.90;;;;;;5095808;28;20480;-71
2022/10/03 13:03:20;;;;;;;14.33;13.47;;;20.80;99.90;;;;;;5090935;28;20672;-71
2022/10/03 13:06:19;;;;;;;14.30;13.30;;;21.50;99.90;;;;;;5094723;28;20774;-71
2022/10/03 13:09:02;;;;;;;15.43;13.80;;;22.20;99.90;;;;;;5089604;28;20468;-74
2022/10/03 13:11:37;;;;;;;15.17;14.27;;;22.50;99.30;;;;;;5094730;28;20498;-69
2022/10/03 13:14:15;;;;;;;15.70;14.50;;;23.10;99.50;;;;;;5091423;28;20468;-70
2022/10/03 13:16:55;;;;;;;15.30;14.20;;;23.70;97.80;;;;;;5093140;28;20894;-72
2022/10/03 13:19:26;;;;;;;15.30;14.30;;;23.70;96.60;;;;;;5092146;28;20460;-69
2022/10/03 13:22:05;;;;;;;15.10;13.70;;;23.90;96.80;;;;;;5092535;28;20458;-69
2022/10/03 13:24:38;;;;;;;14.30;13.50;;;23.80;96.10;;;;;;5094650;28;20463;-69
2022/10/03 13:27:25;;;;;;;14.73;13.63;;;24.60;96.40;;;;;;5094056;28;21093;-69
2022/10/03 13:29:56;;;;;;;14.03;13.20;;;25.10;94.60;;;;;;5093117;28;20481;-69
2022/10/03 13:32:31;;;;;;;15.93;14.60;;;25.00;95.50;;;;;;5093731;28;20469;-69
2022/10/03 13:38:25;;;;;;;15.60;14.50;;;24.30;93.20;;;;;;5080338;28;20477;-71
2022/10/03 13:40:59;;;;;;;14.47;13.50;;;24.30;94.10;;;;;;5088738;28;20515;-69
2022/10/03 13:43:36;;;;;;;16.07;14.97;;;24.90;94.00;;;;;;5090946;28;20485;-68
2022/10/03 13:46:07;;;;;;;15.10;14.10;;;24.30;94.20;;;;;;5092309;28;20892;-68
2022/10/03 13:48:35;;;;;;;15.80;14.80;;;23.90;93.90;;;;;;5092149;28;20781;-69
2022/10/03 13:51:07;;;;;;;15.17;14.07;;;23.40;94.40;;;;;;5094582;28;20489;-72
2022/10/03 13:53:53;;;;;;;14.80;13.70;;;23.20;95.40;;;;;;5094730;28;20466;-69
2022/10/03 13:56:41;;;;;;;14.97;13.87;;;23.50;95.70;;;;;;5101783;28;20464;-68
2022/10/03 13:59:31;;;;;;;15.60;14.70;;;24.30;94.30;;;;;;5096280;28;20464;-70
2022/10/03 14:02:07;;;;;;;15.93;14.83;;;24.50;94.30;;;;;;5082060;28;20458;-70
2022/10/03 14:04:50;;;;;;;16.27;15.07;;;24.20;94.90;;;;;;5096610;28;20468;-74
2022/10/03 14:07:28;;;;;;;15.47;14.47;;;23.80;94.40;;;;;;5092069;28;20468;-69
2022/10/03 14:10:17;;;;;;;15.40;14.50;;;23.20;95.70;;;;;;5099337;28;20484;-71
2022/10/03 14:12:59;;;;;;;14.50;13.43;;;22.40;95.40;;;;;;5094670;28;20961;-72
2022/10/03 14:15:37;;;;;;;15.30;14.30;;;22.80;96.70;;;;;;5091473;28;21093;-70
2022/10/03 14:18:15;;;;;;;15.40;14.20;;;23.10;96.20;;;;;;5093493;28;20469;-69
2022/10/03 14:21:33;;;;;;;14.20;13.10;;;23.50;95.40;;;;;;5092655;28;20522;-70
2022/10/03 14:24:08;;;;;;;16.77;15.30;;;23.30;94.90;;;;;;5094629;28;21001;-69
2022/10/03 14:26:46;;;;;;;14.60;13.40;;;23.90;95.50;;;;;;5094445;28;20473;-69
2022/10/03 14:29:23;;;;;;;14.43;13.40;;;24.50;95.10;;;;;;5092856;28;20488;-69
2022/10/03 14:31:58;;;;;;;14.50;13.70;;;24.70;94.10;;;;;;5090923;28;20857;-70